Time;durP1;ratioP1;P1;durP2;ratioP2;P2;SDS_P1;SDS_P2;PMS_P1;PMS_P2;Temp;Humidity;BMP_temperature;BMP_pressure;BME280_temperature;BME280_humidity;BME280_pressure;Samples;Min_cycle;Max_cycle;Signal;HPM_P1;HPM_P2
2022/02/17 00:00:41;;;;;;;;;0.00;0.00;;;;;21.08;43.41;100232.78;5057067;28;45496;-60
2022/02/17 00:03:06;;;;;;;;;0.00;0.00;;;;;21.05;43.47;100219.81;5057073;28;47469;-58
2022/02/17 00:05:32;;;;;;;;;0.00;0.00;;;;;21.05;43.34;100225.06;5056708;28;45346;-57
2022/02/17 00:07:58;;;;;;;;;0.25;0.00;;;;;21.03;43.39;100224.31;5056624;28;45351;-61
2022/02/17 00:10:25;;;;;;;;;0.00;0.00;;;;;21.01;43.22;100214.72;5056833;28;45613;-58
2022/02/17 00:12:51;;;;;;;;;0.00;0.00;;;;;20.98;43.31;100214.97;5056479;28;46670;-61
2022/02/17 00:15:18;;;;;;;;;0.00;0.00;;;;;20.99;43.53;100216.66;5056534;28;45802;-59
2022/02/17 00:17:43;;;;;;;;;0.00;0.00;;;;;20.98;43.40;100220.22;5056654;28;45183;-59
2022/02/17 00:20:09;;;;;;;;;0.00;0.00;;;;;20.93;43.48;100211.78;5057072;28;45196;-58
2022/02/17 00:22:36;;;;;;;;;0.00;0.00;;;;;20.96;43.66;100208.94;5056699;28;45301;-61
2022/02/17 00:25:03;;;;;;;;;0.00;0.00;;;;;20.94;43.30;100224.00;5056377;28;45342;-61
2022/02/17 00:27:28;;;;;;;;;0.00;0.00;;;;;20.93;43.76;100208.31;5056583;28;45343;-60
2022/02/17 00:29:54;;;;;;;;;0.00;0.00;;;;;20.91;43.56;100216.31;5056713;28;45256;-59
2022/02/17 00:32:19;;;;;;;;;0.00;0.00;;;;;20.92;43.72;100225.06;5056253;28;45408;-60
2022/02/17 00:34:44;;;;;;;;;0.00;0.00;;;;;20.89;43.73;100231.34;5056276;28;45450;-59
2022/02/17 00:37:10;;;;;;;;;0.00;0.00;;;;;20.90;43.43;100246.22;5056816;28;45389;-60
2022/02/17 00:39:35;;;;;;;;;0.00;0.00;;;;;20.89;43.50;100241.06;5055362;28;45664;-58
2022/02/17 00:42:02;;;;;;;;;0.00;0.00;;;;;20.89;43.69;100255.06;5056100;28;45264;-60
2022/02/17 00:44:27;;;;;;;;;0.00;0.00;;;;;20.87;43.53;100264.88;5038153;28;45762;-61
2022/02/17 00:46:56;;;;;;;;;0.00;0.00;;;;;20.85;43.68;100278.13;5056361;28;45296;-61
2022/02/17 00:49:29;;;;;;;;;0.00;0.00;;;;;20.85;43.74;100264.13;5059933;28;45293;-58
2022/02/17 00:51:55;;;;;;;;;0.00;0.00;;;;;20.83;43.49;100280.03;5059797;28;46183;-61
2022/02/17 00:54:22;;;;;;;;;0.00;0.00;;;;;20.83;43.63;100287.94;5058402;28;45702;-61
2022/02/17 00:56:47;;;;;;;;;0.00;0.00;;;;;20.85;43.56;100301.84;5059889;28;45414;-57
2022/02/17 00:59:13;;;;;;;;;0.00;0.00;;;;;20.84;43.81;100302.78;5059906;28;45456;-60
2022/02/17 01:01:39;;;;;;;;;0.00;0.00;;;;;20.84;43.95;100301.94;5059695;28;45342;-60
2022/02/17 01:04:05;;;;;;;;;0.00;0.00;;;;;20.83;44.08;100313.44;5059306;28;45407;-61
2022/02/17 01:06:31;;;;;;;;;0.00;0.00;;;;;20.82;44.10;100311.72;5041341;28;45410;-59
2022/02/17 01:08:56;;;;;;;;;0.00;0.00;;;;;20.82;44.03;100295.94;5059819;28;45226;-61
2022/02/17 01:11:22;;;;;;;;;0.00;0.00;;;;;20.80;43.57;100322.38;5041229;28;45920;-59
2022/02/17 01:13:47;;;;;;;;;0.00;0.00;;;;;20.78;44.00;100297.09;5059263;28;45478;-60
2022/02/17 01:16:12;;;;;;;;;1.00;0.00;;;;;20.80;44.08;100308.34;5059576;28;45217;-59
2022/02/17 01:18:38;;;;;;;;;0.00;0.00;;;;;20.81;43.84;100302.13;5041916;28;45646;-61
2022/02/17 01:21:03;;;;;;;;;0.00;0.00;;;;;20.81;43.95;100294.25;5059311;28;46315;-57
2022/02/17 01:23:29;;;;;;;;;1.00;0.00;;;;;20.80;44.16;100301.31;5059199;28;45172;-60
2022/02/17 01:25:55;;;;;;;;;0.00;0.00;;;;;20.79;43.82;100314.56;5059164;28;45340;-61
2022/02/17 01:28:20;;;;;;;;;0.00;0.00;;;;;20.79;43.74;100310.16;5059443;28;45158;-58
2022/02/17 01:30:46;;;;;;;;;0.00;0.00;;;;;20.76;44.20;100318.25;5058895;28;45705;-59
2022/02/17 01:33:11;;;;;;;;;1.00;0.00;;;;;20.75;44.33;100329.72;5059160;28;45507;-60
2022/02/17 01:35:37;;;;;;;;;0.00;0.00;;;;;20.76;44.03;100341.13;5059020;28;45517;-61
2022/02/17 01:38:03;;;;;;;;;0.00;0.00;;;;;20.77;43.91;100351.53;5059098;28;45385;-61
2022/02/17 01:40:29;;;;;;;;;0.00;0.00;;;;;20.75;43.74;100345.53;5058756;28;46751;-59
2022/02/17 01:42:54;;;;;;;;;0.00;0.00;;;;;20.77;44.25;100369.16;5058708;28;45448;-61
2022/02/17 01:45:20;;;;;;;;;0.00;0.00;;;;;20.77;44.14;100385.78;5058876;28;45368;-61
2022/02/17 01:47:47;;;;;;;;;0.00;0.00;;;;;20.76;43.97;100378.81;5058966;28;45371;-58
2022/02/17 01:50:13;;;;;;;;;0.00;0.00;;;;;20.75;44.04;100376.28;5058866;28;47187;-59
2022/02/17 01:52:39;;;;;;;;;0.00;0.00;;;;;20.73;44.23;100357.91;5058871;28;45701;-58
2022/02/17 01:55:05;;;;;;;;;0.00;0.00;;;;;20.74;43.99;100350.88;5058633;28;45298;-58
2022/02/17 01:57:31;;;;;;;;;0.00;0.00;;;;;20.72;44.07;100365.91;5058799;28;45181;-56
2022/02/17 01:59:57;;;;;;;;;0.00;0.00;;;;;20.73;44.49;100383.41;5057276;28;46155;-57
2022/02/17 02:02:22;;;;;;;;;0.00;0.00;;;;;20.73;43.82;100384.25;5058488;28;45450;-59
2022/02/17 02:04:48;;;;;;;;;0.00;0.00;;;;;20.72;44.47;100382.56;5058655;28;45350;-60
2022/02/17 02:07:14;;;;;;;;;0.00;0.00;;;;;20.73;43.86;100393.94;5058801;28;45982;-60
2022/02/17 02:09:40;;;;;;;;;0.00;0.00;;;;;20.72;44.48;100381.72;5058432;28;46188;-58
2022/02/17 02:12:06;;;;;;;;;0.00;0.00;;;;;20.66;44.29;100378.53;5058383;28;45410;-56
2022/02/17 02:14:31;;;;;;;;;1.00;0.00;;;;;20.70;44.44;100387.91;5058308;28;45447;-56
2022/02/17 02:16:57;;;;;;;;;0.00;0.00;;;;;20.73;43.92;100393.94;5058574;28;45340;-56
2022/02/17 02:19:23;;;;;;;;;0.25;0.00;;;;;20.70;44.54;100408.97;5058299;28;45443;-57
2022/02/17 02:21:48;;;;;;;;;0.00;0.00;;;;;20.69;43.97;100409.91;5058236;28;45256;-61
2022/02/17 02:24:14;;;;;;;;;0.00;0.00;;;;;20.68;44.56;100402.13;5058719;28;45470;-61
2022/02/17 02:26:39;;;;;;;;;0.00;0.00;;;;;20.68;44.15;100413.50;5058423;28;45154;-58
2022/02/17 02:29:05;;;;;;;;;0.00;0.00;;;;;20.69;44.38;100391.50;5058033;28;46728;-60
2022/02/17 02:31:30;;;;;;;;;0.00;0.00;;;;;20.69;44.44;100398.56;5058077;28;45185;-59
2022/02/17 02:33:56;;;;;;;;;0.00;0.00;;;;;20.69;44.14;100398.56;5058322;28;45310;-61
2022/02/17 02:36:21;;;;;;;;;0.00;0.00;;;;;20.69;44.03;100401.19;5058464;28;45542;-61
2022/02/17 02:38:47;;;;;;;;;0.00;0.00;;;;;20.67;44.19;100421.50;5058036;28;45395;-57
2022/02/17 02:41:12;;;;;;;;;0.00;0.00;;;;;20.67;44.40;100416.25;5058240;28;45407;-57
2022/02/17 02:43:38;;;;;;;;;0.00;0.00;;;;;20.66;43.91;100420.66;5057962;28;45323;-61
2022/02/17 02:46:06;;;;;;;;;0.00;0.00;;;;;20.61;44.16;100417.47;5058300;28;45357;-59
2022/02/17 02:48:31;;;;;;;;;0.00;0.00;;;;;20.67;43.99;100430.22;5057831;28;46578;-60
2022/02/17 02:50:56;;;;;;;;;0.00;0.00;;;;;20.63;44.38;100425.25;5057853;28;45379;-62
2022/02/17 02:53:22;;;;;;;;;0.00;0.00;;;;;20.66;43.98;100425.94;5040059;28;45266;-61
2022/02/17 02:55:48;;;;;;;;;0.00;0.00;;;;;20.67;44.26;100451.31;5058322;28;45527;-56
2022/02/17 02:58:15;;;;;;;;;1.00;0.00;;;;;20.70;44.03;100423.94;5057912;28;46512;-62
2022/02/17 03:00:42;;;;;;;;;1.00;0.00;;;;;20.70;44.18;100424.78;5057679;28;45506;-61
2022/02/17 03:03:08;;;;;;;;;0.00;0.00;;;;;20.72;44.36;100413.31;5039952;28;45296;-61
2022/02/17 03:05:33;;;;;;;;;0.00;0.00;;;;;20.73;44.25;100409.75;5057947;28;45517;-61
2022/02/17 03:07:59;;;;;;;;;0.00;0.00;;;;;20.76;44.11;100430.66;5057367;28;45304;-60
2022/02/17 03:10:27;;;;;;;;;0.00;0.00;;;;;20.78;43.87;100441.94;5057107;28;45442;-61
2022/02/17 03:12:52;;;;;;;;;0.75;0.00;;;;;20.78;43.86;100439.31;5057677;28;45265;-59
2022/02/17 03:15:20;;;;;;;;;0.00;0.00;;;;;20.81;43.92;100441.72;5057768;28;45769;-59
2022/02/17 03:17:45;;;;;;;;;0.50;0.00;;;;;20.78;43.77;100439.31;5057650;28;45266;-59
2022/02/17 03:20:11;;;;;;;;;2.00;0.75;;;;;20.79;44.30;100433.06;5057300;28;45455;-60
2022/02/17 03:22:38;;;;;;;;;0.00;0.00;;;;;20.78;44.24;100436.69;5057655;28;45402;-60
2022/02/17 03:25:08;;;;;;;;;0.00;0.00;;;;;20.78;44.16;100428.78;5057696;28;45312;-61
2022/02/17 03:27:34;;;;;;;;;1.00;1.00;;;;;20.75;43.64;100450.03;5057228;28;45266;-61
2022/02/17 03:30:01;;;;;;;;;0.25;0.25;;;;;20.72;44.09;100440.50;5057409;28;45301;-61
2022/02/17 03:32:27;;;;;;;;;0.00;0.00;;;;;20.71;44.17;100436.19;5057319;28;45362;-60
2022/02/17 03:34:53;;;;;;;;;0.00;0.00;;;;;20.72;43.84;100458.09;5057696;28;45456;-61
2022/02/17 03:37:18;;;;;;;;;1.00;1.00;;;;;20.70;43.76;100442.38;5057314;28;45438;-60
2022/02/17 03:39:44;;;;;;;;;1.00;1.00;;;;;20.68;43.54;100460.91;5057197;28;45386;-60
2022/02/17 03:42:09;;;;;;;;;0.75;0.00;;;;;20.67;43.64;100467.09;5057419;28;45408;-60
2022/02/17 03:44:34;;;;;;;;;1.25;1.00;;;;;20.66;43.86;100470.72;5057496;28;45375;-60
2022/02/17 03:47:00;;;;;;;;;0.75;0.00;;;;;20.67;43.93;100474.16;5056845;28;46442;-59
2022/02/17 03:49:25;;;;;;;;;0.50;0.25;;;;;20.62;43.55;100450.75;5056969;28;45249;-61
2022/02/17 03:51:51;;;;;;;;;1.00;1.00;;;;;20.64;43.68;100475.22;5057030;28;45449;-60
2022/02/17 03:54:16;;;;;;;;;1.00;0.00;;;;;20.63;43.58;100484.06;5057424;28;45498;-59
2022/02/17 03:56:42;;;;;;;;;0.00;0.00;;;;;20.62;43.50;100487.63;5056741;28;47493;-60
2022/02/17 03:59:08;;;;;;;;;0.00;0.00;;;;;20.62;43.54;100495.53;5056804;28;45193;-59
2022/02/17 04:01:34;;;;;;;;;1.00;1.00;;;;;20.61;43.34;100500.88;5056951;28;45242;-61
2022/02/17 04:04:02;;;;;;;;;2.25;0.75;;;;;20.60;43.33;100510.56;5057006;28;45209;-61
2022/02/17 04:06:28;;;;;;;;;1.00;1.00;;;;;20.59;43.40;100523.84;5056659;28;45534;-61
2022/02/17 04:08:54;;;;;;;;;1.00;1.00;;;;;20.58;43.60;100509.81;5056738;28;45340;-61
2022/02/17 04:11:20;;;;;;;;;1.00;1.00;;;;;20.58;43.13;100525.59;5057088;28;45393;-59
2022/02/17 04:13:46;;;;;;;;;3.75;1.00;;;;;20.59;43.08;100532.56;5056742;28;45487;-60
2022/02/17 04:16:12;;;;;;;;;4.00;2.00;;;;;20.54;42.92;100516.22;5056383;28;46181;-59
2022/02/17 04:18:38;;;;;;;;;2.00;0.00;;;;;20.57;43.37;100544.13;5056404;28;45155;-59
2022/02/17 04:21:05;;;;;;;;;1.25;1.00;;;;;20.58;43.37;100553.72;5056639;28;45319;-57
2022/02/17 04:23:30;;;;;;;;;1.25;1.00;;;;;20.57;43.15;100537.06;5056005;28;45358;-60
2022/02/17 04:25:55;;;;;;;;;3.00;0.25;;;;;20.54;43.44;100542.53;5056407;28;46448;-60
2022/02/17 04:28:21;;;;;;;;;2.75;0.75;;;;;20.54;43.19;100540.75;5056401;28;51229;-58
2022/02/17 04:30:46;;;;;;;;;2.75;1.50;;;;;20.54;42.80;100560.97;5056856;28;45778;-60
2022/02/17 04:33:11;;;;;;;;;1.75;0.50;;;;;20.53;43.25;100546.09;5056396;28;45348;-59
2022/02/17 04:35:37;;;;;;;;;2.00;0.75;;;;;20.50;43.21;100572.63;5056212;28;45525;-60
2022/02/17 04:38:02;;;;;;;;;2.50;0.25;;;;;20.53;43.17;100593.50;5056200;28;45342;-59
2022/02/17 04:43:12;;;;;;;;;2.25;1.00;;;;;20.49;42.97;100608.63;5056546;28;45394;-60
2022/02/17 04:45:37;;;;;;;;;3.50;1.00;;;;;20.52;42.43;100616.31;5056033;28;45814;-60
2022/02/17 04:48:04;;;;;;;;;4.00;3.00;;;;;20.53;42.44;100620.66;5055963;28;45439;-61
2022/02/17 04:50:29;;;;;;;;;1.00;1.00;;;;;20.51;42.67;100608.53;5056285;28;45338;-56
2022/02/17 04:52:54;;;;;;;;;1.50;1.00;;;;;20.51;42.57;100637.50;5056298;28;45581;-59
2022/02/17 04:55:20;;;;;;;;;1.00;0.25;;;;;20.49;42.57;100631.47;5055987;28;53694;-59
2022/02/17 04:57:45;;;;;;;;;1.00;1.00;;;;;20.49;42.67;100644.63;5055945;28;45316;-59
2022/02/17 05:00:11;;;;;;;;;3.75;2.00;;;;;20.50;42.04;100657.72;5056123;28;45307;-59
2022/02/17 05:02:36;;;;;;;;;2.50;1.00;;;;;20.49;42.08;100665.69;5055973;28;45571;-59
2022/02/17 05:05:02;;;;;;;;;4.75;2.00;;;;;20.47;42.36;100657.03;5055830;28;45538;-58
2022/02/17 05:07:27;;;;;;;;;2.50;2.00;;;;;20.48;42.26;100658.72;5055782;28;45340;-61
2022/02/17 05:09:53;;;;;;;;;3.00;1.00;;;;;20.48;41.78;100677.16;5056320;28;45457;-60
2022/02/17 05:12:18;;;;;;;;;1.50;1.25;;;;;20.48;42.34;100671.88;5056129;28;45359;-60
2022/02/17 05:14:43;;;;;;;;;1.25;1.00;;;;;20.47;42.34;100678.94;5055334;28;50680;-60
2022/02/17 05:17:08;;;;;;;;;3.75;2.00;;;;;20.47;41.92;100675.44;5055881;28;45324;-59
2022/02/17 05:19:34;;;;;;;;;2.00;1.75;;;;;20.45;42.09;100677.34;5055926;28;45373;-59
2022/02/17 05:21:59;;;;;;;;;1.00;1.00;;;;;20.45;41.61;100679.97;5056295;28;45550;-61
2022/02/17 05:24:24;;;;;;;;;4.00;0.50;;;;;20.45;41.94;100701.03;5055600;28;46128;-58
2022/02/17 05:26:50;;;;;;;;;2.50;2.00;;;;;20.46;41.95;100710.59;5055902;28;45375;-59
2022/02/17 05:29:15;;;;;;;;;1.50;1.50;;;;;20.44;42.14;100701.97;5055705;28;46418;-60
2022/02/17 05:31:40;;;;;;;;;4.75;2.75;;;;;20.45;41.90;100706.31;5055937;28;45319;-60
2022/02/17 05:34:06;;;;;;;;;4.25;2.00;;;;;20.44;41.67;100713.34;5057312;28;46478;-59
2022/02/17 05:36:31;;;;;;;;;4.75;2.50;;;;;20.44;41.58;100712.50;5058919;28;45321;-59
2022/02/17 05:38:56;;;;;;;;;3.00;2.00;;;;;20.43;41.96;100708.19;5059057;28;45272;-60
2022/02/17 05:41:22;;;;;;;;;3.00;1.75;;;;;20.43;42.00;100709.00;5059574;28;45280;-60
2022/02/17 05:43:47;;;;;;;;;3.50;2.75;;;;;20.42;41.75;100715.22;5058829;28;46492;-60
2022/02/17 05:46:12;;;;;;;;;6.50;2.00;;;;;20.42;41.44;100722.28;5058896;28;45430;-61
2022/02/17 05:48:38;;;;;;;;;3.00;3.00;;;;;20.39;41.76;100716.25;5058855;28;45460;-59
2022/02/17 05:51:03;;;;;;;;;3.00;3.00;;;;;20.42;41.76;100719.63;5059065;28;45490;-61
2022/02/17 05:53:28;;;;;;;;;1.50;0.75;;;;;20.39;41.77;100713.59;5058639;28;47121;-59
2022/02/17 05:55:54;;;;;;;;;3.50;2.50;;;;;20.40;41.45;100730.22;5059164;28;45353;-57
2022/02/17 05:58:19;;;;;;;;;3.00;2.00;;;;;20.38;41.50;100722.44;5040804;28;45419;-59
2022/02/17 06:00:45;;;;;;;;;4.00;2.00;;;;;20.39;41.51;100721.50;5059001;28;45347;-58
2022/02/17 06:03:10;;;;;;;;;4.00;2.50;;;;;20.39;41.60;100726.78;5058852;28;46564;-57
2022/02/17 06:05:42;;;;;;;;;4.50;2.25;;;;;20.37;41.77;100720.72;5058798;28;45918;-58
2022/02/17 06:08:07;;;;;;;;;3.50;2.00;;;;;20.38;41.31;100734.75;5058665;28;45399;-59
2022/02/17 06:10:33;;;;;;;;;7.25;3.00;;;;;20.38;41.13;100742.66;5058751;28;45535;-61
2022/02/17 06:12:58;;;;;;;;;3.50;1.00;;;;;20.38;41.25;100743.50;5040296;28;46515;-62
2022/02/17 06:15:23;;;;;;;;;5.00;2.00;;;;;20.36;41.18;100741.88;5058568;28;45371;-57
2022/02/17 06:17:49;;;;;;;;;3.25;1.50;;;;;20.37;41.44;100757.59;5040450;28;45735;-56
2022/02/17 06:20:14;;;;;;;;;2.00;2.00;;;;;20.36;41.18;100755.88;5058742;28;45590;-56
2022/02/17 06:22:44;;;;;;;;;3.50;3.00;;;;;20.38;40.82;100767.19;5058318;28;46153;-60
2022/02/17 06:25:10;;;;;;;;;3.25;2.00;;;;;20.37;41.43;100752.31;5057756;28;45396;-56
2022/02/17 06:27:35;;;;;;;;;6.25;2.00;;;;;20.34;41.02;100755.13;5058312;28;45287;-56
2022/02/17 06:30:00;;;;;;;;;9.25;4.25;;;;;20.33;40.81;100747.31;5058518;28;45537;-57
2022/02/17 06:32:26;;;;;;;;;4.00;2.50;;;;;20.35;41.28;100759.44;5058480;28;46300;-58
2022/02/17 06:34:51;;;;;;;;;4.25;3.00;;;;;20.34;41.05;100768.28;5058171;28;45410;-55
2022/02/17 06:37:16;;;;;;;;;5.25;2.00;;;;;20.35;41.27;100785.78;5040002;28;45438;-59
2022/02/17 06:39:42;;;;;;;;;4.00;3.50;;;;;20.34;41.07;100789.34;5058179;28;45324;-55
2022/02/17 06:42:07;;;;;;;;;3.50;2.25;;;;;20.35;41.12;100798.09;5057889;28;46462;-57
2022/02/17 06:44:33;;;;;;;;;1.00;1.00;;;;;20.33;41.25;100798.19;5057686;28;45393;-57
2022/02/17 06:46:58;;;;;;;;;4.00;2.00;;;;;20.34;41.17;100810.38;5057779;28;45771;-58
2022/02/17 06:49:30;;;;;;;;;3.25;2.25;;;;;20.33;41.13;100798.19;5058729;28;45526;-61
2022/02/17 06:51:55;;;;;;;;;3.25;3.25;;;;;20.34;40.96;100806.94;5057991;28;45660;-57
2022/02/17 06:54:20;;;;;;;;;2.75;2.75;;;;;20.34;41.29;100807.75;5056490;28;45813;-57
2022/02/17 06:56:46;;;;;;;;;4.00;2.75;;;;;20.34;40.71;100801.66;5057361;28;55101;-57
2022/02/17 06:59:11;;;;;;;;;3.00;3.00;;;;;20.30;41.15;100805.38;5058067;28;45447;-58
2022/02/17 07:01:37;;;;;;;;;4.25;4.25;;;;;20.33;41.06;100814.00;5057416;28;46161;-57
2022/02/17 07:04:02;;;;;;;;;2.50;2.00;;;;;20.32;41.03;100816.69;5057615;28;45372;-56
2022/02/17 07:06:28;;;;;;;;;5.00;3.00;;;;;20.34;40.46;100822.72;5058175;28;45538;-57
2022/02/17 07:08:53;;;;;;;;;4.00;2.25;;;;;20.29;41.15;100816.84;5057634;28;45343;-57
2022/02/17 07:11:19;;;;;;;;;4.00;2.00;;;;;20.31;40.66;100825.50;5057394;28;45538;-57
2022/02/17 07:13:44;;;;;;;;;2.50;2.50;;;;;20.33;40.65;100828.91;5057537;28;45457;-60
2022/02/17 07:16:10;;;;;;;;;5.00;3.50;;;;;20.31;40.82;100831.63;5057437;28;45314;-59
2022/02/17 07:18:36;;;;;;;;;3.25;3.25;;;;;20.31;41.09;100825.50;5057641;28;45371;-60
2022/02/17 07:21:01;;;;;;;;;4.25;2.00;;;;;20.31;40.53;100846.56;5057286;28;46078;-60
2022/02/17 07:23:27;;;;;;;;;4.00;4.00;;;;;20.32;40.42;100837.75;5057479;28;45244;-59
2022/02/17 07:25:54;;;;;;;;;2.25;2.25;;;;;20.30;40.39;100837.84;5057419;28;45317;-57
2022/02/17 07:28:22;;;;;;;;;6.25;2.25;;;;;20.32;40.47;100843.88;5057324;28;45511;-60
2022/02/17 07:30:48;;;;;;;;;4.00;3.50;;;;;20.32;40.71;100857.03;5057108;28;46396;-60
2022/02/17 07:33:13;;;;;;;;;5.50;5.50;;;;;20.29;40.01;100867.72;5057193;28;45913;-58
2022/02/17 07:35:39;;;;;;;;;6.75;5.50;;;;;20.23;38.44;100862.75;5055953;28;45458;-56
2022/02/17 07:38:06;;;;;;;;;10.50;5.25;;;;;20.20;39.18;100882.22;5057422;28;45520;-60
2022/02/17 07:40:31;;;;;;;;;9.50;7.00;;;;;20.14;38.48;100881.69;5056898;28;47216;-61
2022/02/17 07:42:57;;;;;;;;;10.75;7.25;;;;;20.05;38.10;100873.34;5057458;28;45244;-60
2022/02/17 07:45:22;;;;;;;;;11.50;10.00;;;;;20.04;38.22;100881.34;5057166;28;45315;-60
2022/02/17 07:47:49;;;;;;;;;10.50;6.25;;;;;19.96;37.50;100884.38;5057240;28;45412;-61
2022/02/17 07:50:16;;;;;;;;;11.75;7.75;;;;;19.92;37.75;100898.59;5056629;28;46372;-58
2022/02/17 07:52:43;;;;;;;;;10.00;6.00;;;;;19.89;37.78;100906.66;5056927;28;45938;-60
2022/02/17 07:55:10;;;;;;;;;10.50;6.25;;;;;19.85;37.41;100897.19;5056888;28;45477;-59
2022/02/17 07:57:36;;;;;;;;;10.50;10.50;;;;;19.75;37.35;100881.88;5055894;28;45345;-60
2022/02/17 08:00:03;;;;;;;;;13.25;9.00;;;;;19.76;37.24;100894.09;5057013;28;45507;-59
2022/02/17 08:02:28;;;;;;;;;10.50;7.75;;;;;19.73;37.52;100912.66;5057106;28;45782;-61
2022/02/17 08:04:53;;;;;;;;;9.00;7.00;;;;;19.68;37.66;100901.50;5056747;28;45284;-61
2022/02/17 08:07:19;;;;;;;;;8.75;7.50;;;;;19.67;37.15;100905.09;5056907;28;45377;-61
2022/02/17 08:09:44;;;;;;;;;9.75;6.00;;;;;19.63;37.30;100893.84;5056328;28;52039;-59
2022/02/17 08:12:10;;;;;;;;;16.25;9.25;;;;;19.60;37.32;100904.56;5056540;28;45183;-61
2022/02/17 08:14:35;;;;;;;;;12.75;8.00;;;;;19.59;37.91;100904.63;5056472;28;45575;-61
2022/02/17 08:17:00;;;;;;;;;6.00;4.00;;;;;19.56;37.47;100908.25;5057097;28;45262;-59
2022/02/17 08:19:25;;;;;;;;;9.75;7.25;;;;;19.54;37.39;100919.78;5056277;28;46415;-58
2022/02/17 08:21:51;;;;;;;;;12.00;6.75;;;;;19.53;37.15;100908.41;5056394;28;45277;-59
2022/02/17 08:24:17;;;;;;;;;10.50;4.75;;;;;19.52;37.77;100924.25;5038220;28;45430;-61
2022/02/17 08:26:44;;;;;;;;;9.00;7.25;;;;;19.50;37.61;100945.38;5056654;28;45294;-59
2022/02/17 08:29:09;;;;;;;;;13.00;8.50;;;;;19.49;37.73;100958.56;5056000;28;45821;-60
2022/02/17 08:31:35;;;;;;;;;10.00;8.25;;;;;19.45;37.32;100961.38;5056201;28;45383;-60
2022/02/17 08:34:03;;;;;;;;;5.25;2.50;;;;;19.43;37.58;100965.84;5038791;28;45295;-60
2022/02/17 08:36:33;;;;;;;;;11.75;8.25;;;;;19.40;37.35;100973.88;5056626;28;45556;-61
2022/02/17 08:38:58;;;;;;;;;14.25;7.25;;;;;19.40;37.63;100966.00;5056087;28;46646;-59
2022/02/17 08:41:23;;;;;;;;;14.50;6.50;;;;;19.41;37.72;100964.19;5056106;28;45365;-58
2022/02/17 08:43:49;;;;;;;;;8.75;1.25;;;;;19.42;37.18;100963.28;5056183;28;45667;-59
2022/02/17 08:46:15;;;;;;;;;13.50;8.50;;;;;19.40;37.75;100973.88;5056410;28;45331;-59
2022/02/17 08:48:42;;;;;;;;;16.00;8.75;;;;;19.38;37.52;100967.84;5055945;28;45402;-59
2022/02/17 08:51:07;;;;;;;;;13.00;7.25;;;;;19.40;37.57;100967.78;5056086;28;45361;-60
2022/02/17 08:53:33;;;;;;;;;11.50;9.00;;;;;19.40;37.44;100987.00;5056566;28;45416;-58
2022/02/17 08:55:58;;;;;;;;;11.50;7.75;;;;;19.39;37.37;100972.16;5056268;28;45671;-60
2022/02/17 08:58:23;;;;;;;;;11.50;8.75;;;;;19.40;37.31;100987.00;5055921;28;45382;-58
2022/02/17 09:00:49;;;;;;;;;15.50;9.00;;;;;19.39;37.40;100972.16;5055996;28;45403;-59
2022/02/17 09:03:14;;;;;;;;;9.25;7.50;;;;;19.39;37.36;100977.44;5054601;28;45331;-58
2022/02/17 09:05:40;;;;;;;;;12.00;8.75;;;;;19.34;37.25;100966.31;5056211;28;45154;-58
2022/02/17 09:08:07;;;;;;;;;15.75;11.00;;;;;19.39;37.75;100977.44;5056037;28;46213;-59
2022/02/17 09:10:33;;;;;;;;;10.25;6.25;;;;;19.39;37.18;100973.97;5059583;28;46005;-57
2022/02/17 09:12:58;;;;;;;;;10.25;8.00;;;;;19.32;37.41;100973.41;5058279;28;45461;-56
2022/02/17 09:15:23;;;;;;;;;12.25;6.00;;;;;19.38;37.33;100988.03;5059517;28;45351;-56
2022/02/17 09:17:49;;;;;;;;;8.25;7.00;;;;;19.34;37.14;100971.56;5059278;28;46439;-60
2022/02/17 09:20:15;;;;;;;;;10.75;6.50;;;;;19.33;36.86;100979.50;5059144;28;45358;-59
2022/02/17 09:22:42;;;;;;;;;12.00;5.50;;;;;19.27;37.00;100992.03;5059423;28;45407;-60
2022/02/17 09:25:09;;;;;;;;;9.75;6.00;;;;;19.27;37.10;101012.16;5059461;28;45292;-60
2022/02/17 09:27:34;;;;;;;;;10.00;5.25;;;;;19.28;37.88;101003.38;5059086;28;46497;-60
2022/02/17 09:30:00;;;;;;;;;12.75;7.75;;;;;19.33;37.47;101009.28;5059168;28;45248;-59
2022/02/17 09:32:26;;;;;;;;;12.75;9.00;;;;;19.36;37.64;101008.25;5059313;28;45339;-59
2022/02/17 09:34:51;;;;;;;;;10.25;6.75;;;;;19.37;37.42;101002.94;5057347;28;45410;-58
2022/02/17 09:37:17;;;;;;;;;12.50;8.75;;;;;19.40;37.76;101020.34;5057224;28;47113;-61
2022/02/17 09:39:44;;;;;;;;;13.00;7.75;;;;;19.45;37.81;101027.09;5058315;28;45407;-59
2022/02/17 09:42:09;;;;;;;;;11.50;6.75;;;;;19.46;37.57;101043.69;5058580;28;45411;-59
2022/02/17 09:44:35;;;;;;;;;17.00;8.00;;;;;19.47;37.97;101019.13;5059524;28;45430;-59
2022/02/17 09:47:01;;;;;;;;;14.75;8.00;;;;;19.48;37.76;101031.34;5058921;28;46070;-58
2022/02/17 09:49:30;;;;;;;;;13.00;8.75;;;;;19.53;38.08;101044.25;5058375;28;45351;-55
2022/02/17 09:51:55;;;;;;;;;16.25;10.00;;;;;19.52;37.91;101037.31;5058414;28;45461;-58
2022/02/17 09:54:21;;;;;;;;;13.00;7.25;;;;;19.54;37.92;101051.22;5058809;28;45216;-60
2022/02/17 09:56:46;;;;;;;;;10.75;6.50;;;;;19.55;37.56;101042.41;5040439;28;45406;-58
2022/02/17 09:59:12;;;;;;;;;8.50;6.75;;;;;19.58;37.89;101037.88;5058487;28;45446;-59
2022/02/17 10:01:37;;;;;;;;;6.75;6.25;;;;;19.59;37.77;101044.81;5058195;28;45530;-59
2022/02/17 10:04:17;;;;;;;;;13.25;8.25;;;;;19.60;37.83;101057.03;5058910;28;45547;-59
2022/02/17 10:06:57;;;;;;;;;12.00;10.25;;;;;19.63;37.65;101063.94;5058332;28;46334;-60
2022/02/17 10:09:33;;;;;;;;;8.00;7.00;;;;;19.66;38.10;101052.41;5058438;28;45761;-60
2022/02/17 10:11:59;;;;;;;;;15.50;8.00;;;;;19.65;38.00;101064.72;5058168;28;45300;-59
2022/02/17 10:14:24;;;;;;;;;13.25;8.00;;;;;19.63;37.66;101064.78;5058055;28;45398;-59
2022/02/17 10:16:57;;;;;;;;;6.25;4.50;;;;;19.66;37.58;101063.78;5057644;28;46390;-60
2022/02/17 10:19:27;;;;;;;;;9.25;6.50;;;;;19.70;38.17;101067.13;5057054;28;45386;-60
2022/02/17 10:22:11;;;;;;;;;6.75;6.75;;;;;19.70;38.19;101075.84;5057346;28;45399;-61
2022/02/17 10:24:41;;;;;;;;;4.50;3.50;;;;;19.70;37.95;101073.22;5058577;28;45516;-60
2022/02/17 10:27:13;;;;;;;;;13.00;7.50;;;;;19.71;37.71;101074.94;5057984;28;46357;-57
2022/02/17 10:29:39;;;;;;;;;13.25;9.25;;;;;19.71;38.08;101074.94;5058192;28;45379;-58
2022/02/17 10:32:12;;;;;;;;;10.25;7.00;;;;;19.72;37.51;101086.31;5058205;28;45375;-59
2022/02/17 10:34:42;;;;;;;;;12.00;6.75;;;;;19.74;37.69;101079.19;5057888;28;45466;-58
2022/02/17 10:37:09;;;;;;;;;4.75;4.75;;;;;19.72;37.89;101081.88;5057890;28;46887;-57
2022/02/17 10:39:37;;;;;;;;;7.50;5.25;;;;;19.72;37.24;101079.25;5039014;28;45870;-58
2022/02/17 10:42:06;;;;;;;;;8.00;6.00;;;;;19.76;37.64;101091.34;5058122;28;45768;-60
2022/02/17 10:44:38;;;;;;;;;11.00;6.50;;;;;19.77;38.15;101090.44;5057985;28;45382;-59
2022/02/17 10:47:10;;;;;;;;;5.50;4.75;;;;;19.80;38.52;101084.16;5058163;28;45336;-59
2022/02/17 10:49:41;;;;;;;;;14.25;9.00;;;;;19.77;38.72;101090.44;5058263;28;45338;-57
2022/02/17 10:52:06;;;;;;;;;13.25;6.50;;;;;19.81;39.20;101104.28;5058273;28;45514;-57
2022/02/17 10:54:32;;;;;;;;;9.75;7.50;;;;;19.85;38.84;101118.97;5057979;28;45597;-59
2022/02/17 10:57:05;;;;;;;;;6.50;3.25;;;;;19.85;39.12;101107.59;5057772;28;45652;-60
2022/02/17 11:02:22;;;;;;;;;12.25;8.50;;;;;19.89;39.33;101109.22;5057803;28;45362;-59
2022/02/17 11:04:49;;;;;;;;;10.25;7.25;;;;;19.83;39.30;101110.31;5057822;28;45509;-57
2022/02/17 11:07:15;;;;;;;;;9.75;6.25;;;;;19.93;39.26;101116.88;5057510;28;46560;-59
2022/02/17 11:09:41;;;;;;;;;11.00;6.25;;;;;19.85;39.39;101091.81;5057526;28;45241;-60
2022/02/17 11:12:07;;;;;;;;;10.50;8.25;;;;;19.96;39.03;101129.03;5057861;28;45431;-55
2022/02/17 11:14:36;;;;;;;;;9.50;4.50;;;;;19.98;39.08;101123.66;5057693;28;45431;-55
2022/02/17 11:17:02;;;;;;;;;7.00;5.50;;;;;19.98;38.76;101135.06;5057174;28;46948;-59
2022/02/17 11:19:28;;;;;;;;;6.25;6.25;;;;;19.99;38.94;101133.28;5057479;28;45264;-60
2022/02/17 11:21:53;;;;;;;;;6.25;5.75;;;;;20.02;38.94;101131.34;5057499;28;45276;-59
2022/02/17 11:24:19;;;;;;;;;6.50;6.00;;;;;20.03;39.06;101125.16;5057686;28;45157;-60